Saturday, January 20, 2018, 8:26 AM EST
Back to Local

KHLG, Wheeling Ohio County Airport

Location: Wheeling, WV, United States Lat: 40.167
Local Time: 8:26 AM EST (13:26 GMT) Lon: -80.65
Time Zone: US/Eastern Elev: 1194 ft

Show me the last for .
Show Decoded

2018-01-20 07:53 METAR KHLG 201253Z AUTO 22010KT 10SM CLR 01/M06 A3003 RMK AO2 SLP182 T00111061 =
2018-01-20 06:53 METAR KHLG 201153Z AUTO 23011G18KT 10SM CLR 02/M06 A3001 RMK AO2 SLP175
                 T00171061 10022 20017 53008 =
2018-01-20 05:53 METAR KHLG 201053Z AUTO 22013G22KT 10SM CLR 02/M07 A3000 RMK AO2 SLP172
                 T00171067 =
2018-01-20 04:53 METAR KHLG 200953Z AUTO 23011G19KT 10SM CLR 02/M07 A2999 RMK AO2 SLP168
                 T00171067 =
2018-01-20 03:53 METAR KHLG 200853Z AUTO 22009G20KT 10SM CLR 02/M07 A2999 RMK AO2 SLP166
                 T00221072 50007 =
2018-01-20 01:53 METAR KHLG 200653Z AUTO 22012G22KT 10SM CLR 02/M08 A2997 RMK AO2 SLP161
                 T00171083 =
2018-01-20 00:53 METAR KHLG 200553Z AUTO 21017G25KT 10SM CLR 02/M09 A2996 RMK AO2 SLP160
                 T00171089 10022 20017 58010 =
2018-01-19 23:53 METAR KHLG 200453Z AUTO 22013G21KT 10SM CLR 02/M09 A2998 RMK AO2 SLP166
                 T00171089 400391061 =
2018-01-19 22:53 METAR KHLG 200353Z AUTO 21018G25KT 10SM CLR 02/M09 A2999 RMK AO2 SLP169
                 T00221089 =
2018-01-19 21:53 METAR KHLG 200253Z 21014G21KT 10SM CLR 02/M09 A2999 RMK AO2 SLP172 T00171089
                 56009 =
2018-01-19 20:53 METAR KHLG 200153Z 21013G21KT 10SM CLR 02/M09 A3000 RMK AO2 SLP175 T00171089 =
2018-01-19 19:53 METAR KHLG 200053Z 22010G18KT 10SM CLR 02/M08 A3001 RMK AO2 SLP180 T00171083 =
2018-01-19 18:53 METAR KHLG 192353Z 22008G16KT 10SM CLR 02/M08 A3002 RMK AO2 SLP182 T00221083
                 10039 20006 51003 =
2018-01-19 17:53 METAR KHLG 192253Z 22009KT 10SM CLR 02/M08 A3002 RMK AO2 SLP182 T00221078 =
2018-01-19 16:53 METAR KHLG 192153Z 22011KT 10SM CLR 04/M08 A3002 RMK AO2 SLP180 T00391083 =
2018-01-19 15:53 METAR KHLG 192053Z 22010KT 10SM CLR 04/M08 A3001 RMK AO2 SLP178 T00391083 56019
                 =
2018-01-19 14:53 METAR KHLG 191953Z 21010G17KT 10SM CLR 03/M09 A3002 RMK AO2 SLP179 T00281089 =
2018-01-19 13:53 METAR KHLG 191853Z 21011G18KT 10SM CLR 02/M09 A3004 RMK AO2 SLP189 T00171094 =
2018-01-19 12:53 METAR KHLG 191753Z COR 21009G19KT 10SM CLR 01/M11 A3007 RMK AO2 SLP200 T0006
                 10006 21061 58016 $ =
2018-01-19 11:53 METAR KHLG 191653Z 23011G17KT 10SM CLR M01/M11 A3010 RMK AO2 SLP209 T10061106 =
2018-01-19 10:53 METAR KHLG 191553Z 22011KT 10SM CLR M02/M11 A3011 RMK AO2 SLP215 T10221111 =
2018-01-19 09:53 METAR KHLG 191453Z 22009G20KT 10SM CLR M04/M12 A3012 RMK AO2 SLP217 T10391122
                 58003 =
2018-01-19 08:53 METAR KHLG 191353Z 21012G19KT 10SM CLR M05/M13 A3013 RMK AO2 SLP221 T10501128 =

Support USWX by starting your Amazon purchase here.